sensor_id;sensor_type;location;lat;lon;timestamp;pressure;altitude;pressure_sealevel;temperature;humidity
35489;BME280;21602;55.670;37.578;2023-05-19T00:00:28;99797.53;;;16.24;88.54
35489;BME280;21602;55.670;37.578;2023-05-19T00:02:55;99796.69;;;16.23;88.60
35489;BME280;21602;55.670;37.578;2023-05-19T00:05:21;99804.97;;;16.11;89.54
35489;BME280;21602;55.670;37.578;2023-05-19T00:07:50;99797.19;;;16.15;89.17
35489;BME280;21602;55.670;37.578;2023-05-19T00:10:17;99800.44;;;16.17;89.55
35489;BME280;21602;55.670;37.578;2023-05-19T00:12:43;99804.44;;;16.09;89.65
35489;BME280;21602;55.670;37.578;2023-05-19T00:15:10;99801.66;;;15.99;89.83
35489;BME280;21602;55.670;37.578;2023-05-19T00:17:36;99803.75;;;15.92;90.08
35489;BME280;21602;55.670;37.578;2023-05-19T00:20:03;99804.56;;;15.93;89.90
35489;BME280;21602;55.670;37.578;2023-05-19T00:22:32;99815.00;;;15.84;90.96
35489;BME280;21602;55.670;37.578;2023-05-19T00:24:58;99811.50;;;15.83;90.84
35489;BME280;21602;55.670;37.578;2023-05-19T00:27:24;99821.19;;;15.84;90.68
35489;BME280;21602;55.670;37.578;2023-05-19T00:29:51;99815.31;;;15.87;91.14
35489;BME280;21602;55.670;37.578;2023-05-19T00:32:17;99823.38;;;15.87;91.13
35489;BME280;21602;55.670;37.578;2023-05-19T00:34:43;99827.19;;;15.92;91.38
35489;BME280;21602;55.670;37.578;2023-05-19T00:37:09;99833.88;;;15.89;91.01
35489;BME280;21602;55.670;37.578;2023-05-19T00:39:35;99835.59;;;15.68;92.32
35489;BME280;21602;55.670;37.578;2023-05-19T00:42:01;99837.63;;;15.61;92.47
35489;BME280;21602;55.670;37.578;2023-05-19T00:44:27;99830.09;;;15.58;92.07
35489;BME280;21602;55.670;37.578;2023-05-19T00:46:53;99836.22;;;15.53;91.95
35489;BME280;21602;55.670;37.578;2023-05-19T00:49:19;99831.47;;;15.33;92.56
35489;BME280;21602;55.670;37.578;2023-05-19T00:51:45;99827.88;;;15.28;92.98
35489;BME280;21602;55.670;37.578;2023-05-19T00:54:11;99828.41;;;15.25;92.82
35489;BME280;21602;55.670;37.578;2023-05-19T00:56:37;99832.91;;;15.19;93.22
35489;BME280;21602;55.670;37.578;2023-05-19T00:59:03;99835.16;;;15.05;93.34
35489;BME280;21602;55.670;37.578;2023-05-19T01:01:29;99839.22;;;15.08;93.04
35489;BME280;21602;55.670;37.578;2023-05-19T01:03:57;99832.16;;;15.02;93.17
35489;BME280;21602;55.670;37.578;2023-05-19T01:06:23;99843.19;;;15.00;93.09
35489;BME280;21602;55.670;37.578;2023-05-19T01:08:50;99831.09;;;15.03;92.64
35489;BME280;21602;55.670;37.578;2023-05-19T01:11:19;99836.03;;;15.11;92.14
35489;BME280;21602;55.670;37.578;2023-05-19T01:13:46;99838.97;;;15.09;92.00
35489;BME280;21602;55.670;37.578;2023-05-19T01:16:28;99836.66;;;15.18;91.26
35489;BME280;21602;55.670;37.578;2023-05-19T01:27:55;99838.97;;;15.09;91.21
35489;BME280;21602;55.670;37.578;2023-05-19T01:30:28;99839.28;;;15.13;91.08
35489;BME280;21602;55.670;37.578;2023-05-19T01:33:04;99840.97;;;15.19;91.27
35489;BME280;21602;55.670;37.578;2023-05-19T01:35:34;99848.47;;;15.17;90.99
35489;BME280;21602;55.670;37.578;2023-05-19T01:38:01;99851.91;;;15.13;91.25
35489;BME280;21602;55.670;37.578;2023-05-19T01:40:29;99851.03;;;15.07;91.57
35489;BME280;21602;55.670;37.578;2023-05-19T01:42:58;99847.28;;;15.08;91.78
35489;BME280;21602;55.670;37.578;2023-05-19T01:45:27;99858.25;;;15.01;92.47
35489;BME280;21602;55.670;37.578;2023-05-19T01:47:53;99858.88;;;14.87;93.25
35489;BME280;21602;55.670;37.578;2023-05-19T01:50:20;99857.63;;;14.55;93.99
35489;BME280;21602;55.670;37.578;2023-05-19T01:52:48;99869.66;;;14.36;94.61
35489;BME280;21602;55.670;37.578;2023-05-19T01:55:14;99867.47;;;14.16;95.22
35489;BME280;21602;55.670;37.578;2023-05-19T02:05:47;99887.91;;;13.72;96.10
35489;BME280;21602;55.670;37.578;2023-05-19T02:08:29;99893.34;;;13.60;95.90
35489;BME280;21602;55.670;37.578;2023-05-19T02:11:06;99883.78;;;13.52;94.91
35489;BME280;21602;55.670;37.578;2023-05-19T02:13:38;99880.81;;;13.49;95.21
35489;BME280;21602;55.670;37.578;2023-05-19T02:16:07;99848.53;;;13.44;93.52
35489;BME280;21602;55.670;37.578;2023-05-19T02:18:34;99888.44;;;13.28;92.11
35489;BME280;21602;55.670;37.578;2023-05-19T02:21:00;99893.16;;;12.98;90.03
35489;BME280;21602;55.670;37.578;2023-05-19T02:23:26;99896.88;;;12.85;89.83
35489;BME280;21602;55.670;37.578;2023-05-19T02:25:52;99899.56;;;12.85;89.69
35489;BME280;21602;55.670;37.578;2023-05-19T02:28:18;99895.50;;;12.82;89.46
35489;BME280;21602;55.670;37.578;2023-05-19T02:30:44;99908.78;;;12.77;88.85
35489;BME280;21602;55.670;37.578;2023-05-19T02:33:10;99911.78;;;12.81;88.58
35489;BME280;21602;55.670;37.578;2023-05-19T02:35:36;99902.16;;;12.68;85.87
35489;BME280;21602;55.670;37.578;2023-05-19T02:38:02;99916.25;;;12.64;86.15
35489;BME280;21602;55.670;37.578;2023-05-19T02:40:28;99922.19;;;12.54;84.38
35489;BME280;21602;55.670;37.578;2023-05-19T02:42:54;99923.09;;;12.48;84.92
35489;BME280;21602;55.670;37.578;2023-05-19T02:45:20;99919.38;;;12.49;84.13
35489;BME280;21602;55.670;37.578;2023-05-19T02:47:46;99914.13;;;12.42;84.55
35489;BME280;21602;55.670;37.578;2023-05-19T02:50:12;99922.88;;;12.49;85.20
35489;BME280;21602;55.670;37.578;2023-05-19T02:52:38;99921.69;;;12.57;83.52
35489;BME280;21602;55.670;37.578;2023-05-19T02:55:04;99916.94;;;12.59;84.05
35489;BME280;21602;55.670;37.578;2023-05-19T02:57:33;99924.16;;;12.70;83.54
35489;BME280;21602;55.670;37.578;2023-05-19T02:59:59;99923.09;;;12.71;82.12
35489;BME280;21602;55.670;37.578;2023-05-19T03:02:25;99928.81;;;12.75;82.00
35489;BME280;21602;55.670;37.578;2023-05-19T03:04:51;99928.13;;;12.79;82.51
35489;BME280;21602;55.670;37.578;2023-05-19T03:07:17;99925.91;;;12.65;81.10
35489;BME280;21602;55.670;37.578;2023-05-19T03:09:49;99925.22;;;12.69;81.35
35489;BME280;21602;55.670;37.578;2023-05-19T03:12:15;99935.47;;;12.72;80.59
35489;BME280;21602;55.670;37.578;2023-05-19T03:14:41;99936.16;;;12.79;80.51
35489;BME280;21602;55.670;37.578;2023-05-19T03:17:08;99926.03;;;12.70;79.51
35489;BME280;21602;55.670;37.578;2023-05-19T03:19:37;99928.59;;;12.65;80.37
35489;BME280;21602;55.670;37.578;2023-05-19T03:22:03;99937.91;;;12.50;80.41
35489;BME280;21602;55.670;37.578;2023-05-19T03:24:30;99939.28;;;12.53;80.71
35489;BME280;21602;55.670;37.578;2023-05-19T03:26:56;99941.25;;;12.57;80.58
35489;BME280;21602;55.670;37.578;2023-05-19T03:29:22;99946.03;;;12.67;80.90
35489;BME280;21602;55.670;37.578;2023-05-19T03:31:48;99953.75;;;12.75;80.31
35489;BME280;21602;55.670;37.578;2023-05-19T03:34:15;99954.09;;;12.79;79.94
35489;BME280;21602;55.670;37.578;2023-05-19T03:36:41;99964.22;;;12.89;79.62
35489;BME280;21602;55.670;37.578;2023-05-19T03:39:12;99958.88;;;12.89;79.61
35489;BME280;21602;55.670;37.578;2023-05-19T03:41:38;99956.53;;;12.80;79.26
35489;BME280;21602;55.670;37.578;2023-05-19T03:44:04;99962.00;;;12.62;80.25
35489;BME280;21602;55.670;37.578;2023-05-19T03:46:30;99950.47;;;12.50;81.21
35489;BME280;21602;55.670;37.578;2023-05-19T03:48:59;99969.09;;;12.45;81.54
35489;BME280;21602;55.670;37.578;2023-05-19T03:51:48;99962.69;;;12.46;81.69
35489;BME280;21602;55.670;37.578;2023-05-19T03:54:23;99969.19;;;12.38;82.31
35489;BME280;21602;55.670;37.578;2023-05-19T03:56:50;99971.03;;;12.38;82.13
35489;BME280;21602;55.670;37.578;2023-05-19T03:59:17;99974.88;;;12.30;82.70
35489;BME280;21602;55.670;37.578;2023-05-19T04:01:43;99966.38;;;12.21;83.19
35489;BME280;21602;55.670;37.578;2023-05-19T04:04:10;99974.34;;;12.10;84.20
35489;BME280;21602;55.670;37.578;2023-05-19T04:06:36;99974.59;;;12.08;84.66
35489;BME280;21602;55.670;37.578;2023-05-19T04:09:02;99978.88;;;12.09;84.72
35489;BME280;21602;55.670;37.578;2023-05-19T04:11:35;99986.22;;;12.14;84.75
35489;BME280;21602;55.670;37.578;2023-05-19T04:14:01;99976.94;;;12.16;84.33
35489;BME280;21602;55.670;37.578;2023-05-19T04:16:27;99978.25;;;12.25;84.38
35489;BME280;21602;55.670;37.578;2023-05-19T04:18:53;99985.59;;;12.30;84.84
35489;BME280;21602;55.670;37.578;2023-05-19T04:21:19;99987.84;;;12.45;84.50
35489;BME280;21602;55.670;37.578;2023-05-19T04:23:47;99980.84;;;12.44;84.15
35489;BME280;21602;55.670;37.578;2023-05-19T04:26:13;99981.63;;;12.33;84.14
35489;BME280;21602;55.670;37.578;2023-05-19T04:28:43;99979.06;;;12.26;84.37
35489;BME280;21602;55.670;37.578;2023-05-19T04:31:11;99976.84;;;12.23;83.93
35489;BME280;21602;55.670;37.578;2023-05-19T04:33:38;99980.31;;;12.23;84.60
35489;BME280;21602;55.670;37.578;2023-05-19T04:36:06;99979.06;;;12.26;84.37
35489;BME280;21602;55.670;37.578;2023-05-19T04:38:37;99985.47;;;12.37;84.17
35489;BME280;21602;55.670;37.578;2023-05-19T04:41:07;99977.34;;;12.43;83.70
35489;BME280;21602;55.670;37.578;2023-05-19T04:43:37;99988.88;;;12.44;83.77
35489;BME280;21602;55.670;37.578;2023-05-19T04:46:08;99990.28;;;12.46;84.03
35489;BME280;21602;55.670;37.578;2023-05-19T04:48:36;99989.78;;;12.38;83.58
35489;BME280;21602;55.670;37.578;2023-05-19T04:51:02;99995.69;;;12.28;83.64
35489;BME280;21602;55.670;37.578;2023-05-19T04:53:29;99996.13;;;12.13;84.36
35489;BME280;21602;55.670;37.578;2023-05-19T04:55:57;99987.38;;;12.06;84.30
35489;BME280;21602;55.670;37.578;2023-05-19T04:58:23;99989.28;;;12.17;84.45
35489;BME280;21602;55.670;37.578;2023-05-19T05:00:53;99985.94;;;12.34;84.99
35489;BME280;21602;55.670;37.578;2023-05-19T05:03:25;99985.94;;;12.34;85.09
35489;BME280;21602;55.670;37.578;2023-05-19T05:05:52;99992.00;;;12.41;85.65
35489;BME280;21602;55.670;37.578;2023-05-19T05:08:18;99988.31;;;12.53;85.37
35489;BME280;21602;55.670;37.578;2023-05-19T05:10:49;99997.63;;;12.63;85.49
35489;BME280;21602;55.670;37.578;2023-05-19T05:13:20;99997.03;;;12.49;85.38
35489;BME280;21602;55.670;37.578;2023-05-19T05:15:47;100003.19;;;12.38;85.88
35489;BME280;21602;55.670;37.578;2023-05-19T05:18:14;100003.78;;;12.40;85.99
35489;BME280;21602;55.670;37.578;2023-05-19T05:20:42;100004.00;;;12.38;86.04
35489;BME280;21602;55.670;37.578;2023-05-19T05:23:10;100008.53;;;12.38;87.08
35489;BME280;21602;55.670;37.578;2023-05-19T05:25:43;100004.41;;;12.23;87.49
35489;BME280;21602;55.670;37.578;2023-05-19T05:28:10;100003.84;;;12.21;87.35
35489;BME280;21602;55.670;37.578;2023-05-19T05:30:37;100016.00;;;12.36;87.52
35489;BME280;21602;55.670;37.578;2023-05-19T05:33:06;100012.63;;;12.40;87.57
35489;BME280;21602;55.670;37.578;2023-05-19T05:35:36;100018.91;;;12.46;86.72
35489;BME280;21602;55.670;37.578;2023-05-19T05:38:03;100015.78;;;12.49;86.48
35489;BME280;21602;55.670;37.578;2023-05-19T05:40:30;100022.22;;;12.29;86.59
35489;BME280;21602;55.670;37.578;2023-05-19T05:42:56;100017.00;;;12.23;86.92
35489;BME280;21602;55.670;37.578;2023-05-19T05:45:25;100019.25;;;12.38;86.95
35489;BME280;21602;55.670;37.578;2023-05-19T05:47:53;100018.47;;;12.49;86.70
35489;BME280;21602;55.670;37.578;2023-05-19T05:50:19;100016.94;;;12.53;86.96
35489;BME280;21602;55.670;37.578;2023-05-19T05:52:46;100027.56;;;12.60;86.56
35489;BME280;21602;55.670;37.578;2023-05-19T05:55:14;100022.09;;;12.66;86.57
35489;BME280;21602;55.670;37.578;2023-05-19T05:57:41;100029.91;;;12.68;86.12
35489;BME280;21602;55.670;37.578;2023-05-19T06:00:08;100025.38;;;12.68;86.01
35489;BME280;21602;55.670;37.578;2023-05-19T06:02:45;100031.66;;;12.74;85.21
35489;BME280;21602;55.670;37.578;2023-05-19T06:05:12;100030.03;;;12.73;85.62
35489;BME280;21602;55.670;37.578;2023-05-19T06:07:40;100031.44;;;12.64;85.25
35489;BME280;21602;55.670;37.578;2023-05-19T06:10:08;100036.09;;;12.68;85.74
35489;BME280;21602;55.670;37.578;2023-05-19T06:12:37;100033.06;;;12.76;85.94
35489;BME280;21602;55.670;37.578;2023-05-19T06:15:11;100037.97;;;12.79;85.44
35489;BME280;21602;55.670;37.578;2023-05-19T06:17:56;100037.97;;;12.79;85.58
35489;BME280;21602;55.670;37.578;2023-05-19T06:20:22;100034.94;;;12.88;85.34
35489;BME280;21602;55.670;37.578;2023-05-19T06:22:48;100035.63;;;12.95;84.79
35489;BME280;21602;55.670;37.578;2023-05-19T06:25:17;100037.19;;;13.02;85.08
35489;BME280;21602;55.670;37.578;2023-05-19T06:27:47;100035.53;;;13.13;84.96
35489;BME280;21602;55.670;37.578;2023-05-19T06:30:14;100032.06;;;13.24;84.35
35489;BME280;21602;55.670;37.578;2023-05-19T06:32:51;100035.91;;;13.40;84.21
35489;BME280;21602;55.670;37.578;2023-05-19T06:35:17;100038.81;;;13.50;83.04
35489;BME280;21602;55.670;37.578;2023-05-19T06:37:43;100020.75;;;13.34;82.72
35489;BME280;21602;55.670;37.578;2023-05-19T06:40:10;100040.34;;;13.35;82.46
35489;BME280;21602;55.670;37.578;2023-05-19T06:42:38;100041.03;;;13.42;82.74
35489;BME280;21602;55.670;37.578;2023-05-19T06:45:13;100038.00;;;13.50;81.70
35489;BME280;21602;55.670;37.578;2023-05-19T06:47:39;100039.97;;;13.43;81.24
35489;BME280;21602;55.670;37.578;2023-05-19T06:50:08;100041.03;;;13.42;81.28
35489;BME280;21602;55.670;37.578;2023-05-19T06:52:36;100037.63;;;13.58;81.59
35489;BME280;21602;55.670;37.578;2023-05-19T06:55:02;100036.44;;;13.66;80.73
35489;BME280;21602;55.670;37.578;2023-05-19T06:57:31;100041.53;;;13.79;80.40
35489;BME280;21602;55.670;37.578;2023-05-19T06:59:56;100042.56;;;13.90;79.43
35489;BME280;21602;55.670;37.578;2023-05-19T07:02:23;100047.22;;;13.94;79.37
35489;BME280;21602;55.670;37.578;2023-05-19T07:04:49;100045.44;;;14.00;79.13
35489;BME280;21602;55.670;37.578;2023-05-19T07:07:17;100044.97;;;14.03;78.41
35489;BME280;21602;55.670;37.578;2023-05-19T07:09:43;100040.69;;;13.90;78.48
35489;BME280;21602;55.670;37.578;2023-05-19T07:12:09;100050.16;;;13.81;78.83
35489;BME280;21602;55.670;37.578;2023-05-19T07:14:37;100044.69;;;13.88;78.92
35489;BME280;21602;55.670;37.578;2023-05-19T07:17:04;100048.81;;;14.07;78.33
35489;BME280;21602;55.670;37.578;2023-05-19T07:19:32;100049.72;;;14.13;77.72
35489;BME280;21602;55.670;37.578;2023-05-19T07:21:58;100043.72;;;14.22;77.80
35489;BME280;21602;55.670;37.578;2023-05-19T07:24:24;100044.34;;;14.41;77.43
35489;BME280;21602;55.670;37.578;2023-05-19T07:26:52;100044.63;;;14.28;75.03
35489;BME280;21602;55.670;37.578;2023-05-19T07:29:18;100051.88;;;14.27;76.17
35489;BME280;21602;55.670;37.578;2023-05-19T07:31:44;100047.19;;;14.34;75.44
35489;BME280;21602;55.670;37.578;2023-05-19T07:34:10;100034.47;;;14.30;74.55
35489;BME280;21602;55.670;37.578;2023-05-19T07:36:36;100049.69;;;14.24;74.25
35489;BME280;21602;55.670;37.578;2023-05-19T07:39:02;100043.72;;;13.94;74.70
35489;BME280;21602;55.670;37.578;2023-05-19T07:41:28;100046.19;;;13.83;75.43
35489;BME280;21602;55.670;37.578;2023-05-19T07:43:55;100047.94;;;13.90;75.84
35489;BME280;21602;55.670;37.578;2023-05-19T07:46:22;100060.50;;;14.01;75.93
35489;BME280;21602;55.670;37.578;2023-05-19T07:48:48;100030.13;;;14.12;75.55
35489;BME280;21602;55.670;37.578;2023-05-19T07:51:14;100055.44;;;14.16;75.60
35489;BME280;21602;55.670;37.578;2023-05-19T07:53:40;100045.50;;;14.17;75.34
35489;BME280;21602;55.670;37.578;2023-05-19T07:56:06;100047.75;;;14.37;74.94
35489;BME280;21602;55.670;37.578;2023-05-19T07:58:32;100040.16;;;14.62;74.17
35489;BME280;21602;55.670;37.578;2023-05-19T08:00:58;100046.03;;;14.93;73.62
35489;BME280;21602;55.670;37.578;2023-05-19T08:03:25;100047.81;;;15.04;72.59
35489;BME280;21602;55.670;37.578;2023-05-19T08:05:51;100047.16;;;15.14;71.45
35489;BME280;21602;55.670;37.578;2023-05-19T08:08:17;100048.28;;;15.18;70.84
35489;BME280;21602;55.670;37.578;2023-05-19T08:10:45;100050.56;;;15.09;69.54
35489;BME280;21602;55.670;37.578;2023-05-19T08:13:11;100046.00;;;15.09;69.42
35489;BME280;21602;55.670;37.578;2023-05-19T08:15:37;100055.72;;;14.94;69.67
35489;BME280;21602;55.670;37.578;2023-05-19T08:18:04;100050.59;;;14.75;70.35
35489;BME280;21602;55.670;37.578;2023-05-19T08:20:30;100047.84;;;14.87;70.81
35489;BME280;21602;55.670;37.578;2023-05-19T08:22:56;100059.16;;;15.06;70.17
35489;BME280;21602;55.670;37.578;2023-05-19T08:25:22;100056.22;;;14.91;68.81
35489;BME280;21602;55.670;37.578;2023-05-19T08:27:48;100054.34;;;14.91;68.48
35489;BME280;21602;55.670;37.578;2023-05-19T08:30:14;100054.09;;;14.93;66.77
35489;BME280;21602;55.670;37.578;2023-05-19T08:32:40;100058.91;;;15.07;67.35
35489;BME280;21602;55.670;37.578;2023-05-19T08:35:12;100058.72;;;15.31;65.64
35489;BME280;21602;55.670;37.578;2023-05-19T08:37:38;100051.72;;;15.52;63.61
35489;BME280;21602;55.670;37.578;2023-05-19T08:40:04;100048.41;;;15.45;61.70
35489;BME280;21602;55.670;37.578;2023-05-19T08:42:32;100051.66;;;15.47;60.49
35489;BME280;21602;55.670;37.578;2023-05-19T08:44:59;100056.75;;;15.43;58.13
35489;BME280;21602;55.670;37.578;2023-05-19T08:47:27;100059.94;;;15.40;58.07
35489;BME280;21602;55.670;37.578;2023-05-19T08:50:04;100065.22;;;15.35;56.96
35489;BME280;21602;55.670;37.578;2023-05-19T08:52:51;100046.00;;;15.26;55.40
35489;BME280;21602;55.670;37.578;2023-05-19T08:57:55;100063.69;;;15.22;54.79
35489;BME280;21602;55.670;37.578;2023-05-19T09:00:24;100053.81;;;15.28;53.78
35489;BME280;21602;55.670;37.578;2023-05-19T09:02:53;100047.47;;;15.34;54.70
35489;BME280;21602;55.670;37.578;2023-05-19T09:05:19;100042.09;;;15.34;54.25
35489;BME280;21602;55.670;37.578;2023-05-19T09:07:48;100040.97;;;15.52;55.35
35489;BME280;21602;55.670;37.578;2023-05-19T09:10:14;100045.16;;;15.81;54.97
35489;BME280;21602;55.670;37.578;2023-05-19T09:12:45;100047.06;;;16.08;53.34
35489;BME280;21602;55.670;37.578;2023-05-19T09:15:15;100052.81;;;16.17;52.24
35489;BME280;21602;55.670;37.578;2023-05-19T09:17:44;100041.56;;;15.98;52.13
35489;BME280;21602;55.670;37.578;2023-05-19T09:20:13;100046.34;;;15.69;52.59
35489;BME280;21602;55.670;37.578;2023-05-19T09:22:45;100051.31;;;15.60;51.94
35489;BME280;21602;55.670;37.578;2023-05-19T09:25:21;100039.63;;;15.71;51.69
35489;BME280;21602;55.670;37.578;2023-05-19T09:27:48;100043.72;;;15.96;52.64
35489;BME280;21602;55.670;37.578;2023-05-19T09:30:16;100045.38;;;16.24;51.60
35489;BME280;21602;55.670;37.578;2023-05-19T09:32:44;100051.56;;;16.24;49.67
35489;BME280;21602;55.670;37.578;2023-05-19T09:35:11;100038.66;;;16.26;49.97
35489;BME280;21602;55.670;37.578;2023-05-19T09:37:41;100047.03;;;16.30;48.57
35489;BME280;21602;55.670;37.578;2023-05-19T09:40:08;100064.56;;;16.32;48.20
35489;BME280;21602;55.670;37.578;2023-05-19T09:42:39;100042.22;;;16.05;47.90
35489;BME280;21602;55.670;37.578;2023-05-19T09:45:07;100038.28;;;15.91;47.95
35489;BME280;21602;55.670;37.578;2023-05-19T09:47:38;100041.34;;;15.77;48.67
35489;BME280;21602;55.670;37.578;2023-05-19T09:50:05;100022.78;;;16.03;49.38
35489;BME280;21602;55.670;37.578;2023-05-19T09:52:37;100031.81;;;16.46;48.26
35489;BME280;21602;55.670;37.578;2023-05-19T09:55:04;100033.03;;;16.60;47.49
35489;BME280;21602;55.670;37.578;2023-05-19T09:57:33;100025.41;;;16.52;47.40
35489;BME280;21602;55.670;37.578;2023-05-19T10:00:08;100026.44;;;16.46;47.26
35489;BME280;21602;55.670;37.578;2023-05-19T10:02:41;100036.91;;;16.42;47.09
35489;BME280;21602;55.670;37.578;2023-05-19T10:05:18;100026.44;;;16.46;46.82
35489;BME280;21602;55.670;37.578;2023-05-19T10:07:46;100030.25;;;16.50;46.90
35489;BME280;21602;55.670;37.578;2023-05-19T10:10:14;100025.63;;;16.72;47.23
35489;BME280;21602;55.670;37.578;2023-05-19T10:12:41;100017.22;;;17.01;47.00
35489;BME280;21602;55.670;37.578;2023-05-19T10:15:11;100021.16;;;17.30;46.18
35489;BME280;21602;55.670;37.578;2023-05-19T10:17:39;100021.84;;;17.53;45.88
35489;BME280;21602;55.670;37.578;2023-05-19T10:20:10;100014.53;;;17.53;46.22
35489;BME280;21602;55.670;37.578;2023-05-19T10:22:41;100022.84;;;17.41;45.43
35489;BME280;21602;55.670;37.578;2023-05-19T10:25:08;100022.31;;;17.45;45.27
35489;BME280;21602;55.670;37.578;2023-05-19T10:27:43;100028.47;;;17.30;45.03
35489;BME280;21602;55.670;37.578;2023-05-19T10:30:35;100042.34;;;17.54;44.43
35489;BME280;21602;55.670;37.578;2023-05-19T10:33:03;100024.59;;;17.68;45.25
35489;BME280;21602;55.670;37.578;2023-05-19T10:44:35;100034.44;;;17.42;44.41
35489;BME280;21602;55.670;37.578;2023-05-19T10:47:08;100025.06;;;17.55;44.69
35489;BME280;21602;55.670;37.578;2023-05-19T10:49:39;100024.69;;;17.83;44.17
35489;BME280;21602;55.670;37.578;2023-05-19T10:52:21;100020.44;;;18.13;43.28
35489;BME280;21602;55.670;37.578;2023-05-19T10:54:50;100021.81;;;18.26;43.86
35489;BME280;21602;55.670;37.578;2023-05-19T10:57:19;100021.00;;;18.25;43.18
35489;BME280;21602;55.670;37.578;2023-05-19T10:59:48;100016.16;;;18.32;43.45
35489;BME280;21602;55.670;37.578;2023-05-19T11:02:40;100023.19;;;18.23;43.06
35489;BME280;21602;55.670;37.578;2023-05-19T11:05:14;100028.53;;;18.13;42.18
35489;BME280;21602;55.670;37.578;2023-05-19T11:07:43;100010.97;;;18.05;42.90
35489;BME280;21602;55.670;37.578;2023-05-19T11:10:22;100011.00;;;18.26;42.77
35489;BME280;21602;55.670;37.578;2023-05-19T11:12:49;100019.94;;;18.36;42.53
35489;BME280;21602;55.670;37.578;2023-05-19T11:15:15;100011.31;;;18.55;42.01
35489;BME280;21602;55.670;37.578;2023-05-19T11:17:44;100005.38;;;18.83;41.46
35489;BME280;21602;55.670;37.578;2023-05-19T11:20:25;100014.31;;;18.99;40.71
35489;BME280;21602;55.670;37.578;2023-05-19T11:23:08;100012.13;;;19.06;40.87
35489;BME280;21602;55.670;37.578;2023-05-19T11:25:40;100011.28;;;19.16;40.76
35489;BME280;21602;55.670;37.578;2023-05-19T11:28:07;100018.91;;;19.04;40.28
35489;BME280;21602;55.670;37.578;2023-05-19T11:30:35;100001.88;;;18.52;41.26
35489;BME280;21602;55.670;37.578;2023-05-19T11:33:01;100005.66;;;18.61;41.61
35489;BME280;21602;55.670;37.578;2023-05-19T11:35:28;100007.56;;;18.71;41.64
35489;BME280;21602;55.670;37.578;2023-05-19T11:37:55;100012.97;;;18.81;41.22
35489;BME280;21602;55.670;37.578;2023-05-19T11:40:22;100031.34;;;18.69;40.47
35489;BME280;21602;55.670;37.578;2023-05-19T11:42:48;100017.53;;;18.45;40.76
35489;BME280;21602;55.670;37.578;2023-05-19T11:45:14;100012.13;;;18.40;40.77
35489;BME280;21602;55.670;37.578;2023-05-19T11:47:40;100024.78;;;18.14;40.81
35489;BME280;21602;55.670;37.578;2023-05-19T11:50:06;100019.94;;;18.31;41.03
35489;BME280;21602;55.670;37.578;2023-05-19T11:52:33;100010.22;;;18.46;41.10
35489;BME280;21602;55.670;37.578;2023-05-19T11:54:59;100014.00;;;18.55;40.58
35489;BME280;21602;55.670;37.578;2023-05-19T11:57:27;100030.00;;;18.56;40.61
35489;BME280;21602;55.670;37.578;2023-05-19T11:59:53;100019.94;;;18.47;40.83
35489;BME280;21602;55.670;37.578;2023-05-19T12:02:24;100031.84;;;18.46;40.73
35489;BME280;21602;55.670;37.578;2023-05-19T12:04:51;100019.94;;;18.36;41.02
35489;BME280;21602;55.670;37.578;2023-05-19T12:07:18;100011.31;;;18.39;40.72
35489;BME280;21602;55.670;37.578;2023-05-19T12:09:45;100036.72;;;18.33;40.66
35489;BME280;21602;55.670;37.578;2023-05-19T12:12:15;100008.88;;;18.38;40.70
35489;BME280;21602;55.670;37.578;2023-05-19T12:14:45;100019.94;;;18.41;40.13
35489;BME280;21602;55.670;37.578;2023-05-19T12:17:16;100022.69;;;18.52;40.24
35489;BME280;21602;55.670;37.578;2023-05-19T12:19:44;100006.22;;;18.68;40.39
35489;BME280;21602;55.670;37.578;2023-05-19T12:22:10;100024.56;;;18.61;39.08
35489;BME280;21602;55.670;37.578;2023-05-19T12:24:37;100024.31;;;18.58;39.68
35489;BME280;21602;55.670;37.578;2023-05-19T12:29:38;100027.00;;;18.42;38.82
35489;BME280;21602;55.670;37.578;2023-05-19T12:32:06;100031.84;;;18.46;38.72
35489;BME280;21602;55.670;37.578;2023-05-19T12:34:36;100036.94;;;18.27;38.17
35489;BME280;21602;55.670;37.578;2023-05-19T12:37:03;100029.13;;;18.30;38.16
35489;BME280;21602;55.670;37.578;2023-05-19T12:39:30;100034.25;;;18.27;38.17
35489;BME280;21602;55.670;37.578;2023-05-19T12:42:02;100029.41;;;18.19;37.83
35489;BME280;21602;55.670;37.578;2023-05-19T12:44:29;100031.28;;;18.23;37.65
35489;BME280;21602;55.670;37.578;2023-05-19T12:47:05;100030.72;;;18.21;37.56
35489;BME280;21602;55.670;37.578;2023-05-19T12:52:20;100041.31;;;18.38;37.13
35489;BME280;21602;55.670;37.578;2023-05-19T12:54:49;100024.31;;;18.53;36.87
35489;BME280;21602;55.670;37.578;2023-05-19T12:57:15;100032.69;;;18.61;37.00
35489;BME280;21602;55.670;37.578;2023-05-19T12:59:42;100031.31;;;18.54;36.22
35489;BME280;21602;55.670;37.578;2023-05-19T13:02:08;100018.03;;;18.27;37.24
35489;BME280;21602;55.670;37.578;2023-05-19T13:04:34;100029.94;;;18.31;36.70
35489;BME280;21602;55.670;37.578;2023-05-19T13:07:00;100026.44;;;18.40;36.83
35489;BME280;21602;55.670;37.578;2023-05-19T13:09:26;100025.38;;;18.62;36.96
35489;BME280;21602;55.670;37.578;2023-05-19T13:11:53;100026.50;;;18.81;36.94
35489;BME280;21602;55.670;37.578;2023-05-19T13:14:19;100023.75;;;19.02;36.73
35489;BME280;21602;55.670;37.578;2023-05-19T13:16:45;100034.53;;;19.27;36.54
35489;BME280;21602;55.670;37.578;2023-05-19T13:19:20;100030.44;;;19.45;36.36
35489;BME280;21602;55.670;37.578;2023-05-19T13:21:46;100017.16;;;19.49;36.16